Time;durP1;ratioP1;P1;durP2;ratioP2;P2;SDS_P1;SDS_P2;PMS_P1;PMS_P2;Temp;Humidity;BMP_temperature;BMP_pressure;BME280_temperature;BME280_humidity;BME280_pressure;Samples;Min_cycle;Max_cycle;Signal;HPM_P1;HPM_P2
2023/09/07 00:00:13;;;;;;;9.30;7.78;;;;;;;;;;4994742;28;25091;-73
2023/09/07 00:02:39;;;;;;;10.15;7.95;;;;;;;;;;4997288;28;25088;-73
2023/09/07 00:05:06;;;;;;;12.23;8.13;;;;;;;;;;4988033;28;25164;-72
2023/09/07 00:07:32;;;;;;;15.50;8.52;;;;;;;;;;4983056;28;25132;-72
2023/09/07 00:09:59;;;;;;;12.13;8.90;;;;;;;;;;4986024;28;25193;-71
2023/09/07 00:12:25;;;;;;;15.00;8.73;;;;;;;;;;4985906;28;25061;-73
2023/09/07 00:14:51;;;;;;;15.63;9.15;;;;;;;;;;4986280;28;25073;-71
2023/09/07 00:17:17;;;;;;;11.00;9.23;;;;;;;;;;4987386;28;25074;-72
2023/09/07 00:19:44;;;;;;;9.55;8.55;;;;;;;;;;4987627;28;25170;-72
2023/09/07 00:22:10;;;;;;;10.68;8.68;;;;;;;;;;4991515;28;25059;-73
2023/09/07 00:24:36;;;;;;;12.68;9.35;;;;;;;;;;4993149;28;24976;-74
2023/09/07 00:27:05;;;;;;;13.25;8.98;;;;;;;;;;4987954;28;25080;-71
2023/09/07 00:29:31;;;;;;;13.88;10.48;;;;;;;;;;4987281;28;25159;-72
2023/09/07 00:31:57;;;;;;;12.73;9.38;;;;;;;;;;4984635;28;25091;-71
2023/09/07 00:34:23;;;;;;;16.33;9.60;;;;;;;;;;4986752;28;25068;-72
2023/09/07 00:36:49;;;;;;;14.15;9.85;;;;;;;;;;4987624;28;25055;-71
2023/09/07 00:39:15;;;;;;;13.50;9.27;;;;;;;;;;4987014;28;25154;-73
2023/09/07 00:41:41;;;;;;;14.75;9.82;;;;;;;;;;4987365;28;25136;-72
2023/09/07 00:44:07;;;;;;;14.38;10.00;;;;;;;;;;4985015;28;25046;-73
2023/09/07 00:46:33;;;;;;;11.93;9.38;;;;;;;;;;4987988;28;25072;-74
2023/09/07 00:48:59;;;;;;;14.68;9.73;;;;;;;;;;4990573;28;25063;-74
2023/09/07 00:51:25;;;;;;;13.68;10.63;;;;;;;;;;4991970;28;25075;-73
2023/09/07 00:53:51;;;;;;;15.07;9.35;;;;;;;;;;4984857;28;25165;-74
2023/09/07 00:56:17;;;;;;;14.00;10.07;;;;;;;;;;4988102;28;25137;-73
2023/09/07 00:58:43;;;;;;;13.25;10.73;;;;;;;;;;4989307;28;25063;-73
2023/09/07 01:01:09;;;;;;;16.13;11.52;;;;;;;;;;4982251;28;25058;-72
2023/09/07 01:03:35;;;;;;;14.68;11.38;;;;;;;;;;4987023;28;25070;-73
2023/09/07 01:06:08;;;;;;;14.05;11.38;;;;;;;;;;4986576;28;25142;-73
2023/09/07 01:08:42;;;;;;;13.60;11.23;;;;;;;;;;4983826;28;25057;-72
2023/09/07 01:11:20;;;;;;;14.13;10.95;;;;;;;;;;4978460;28;25101;-73
2023/09/07 01:13:46;;;;;;;15.30;11.38;;;;;;;;;;4992545;28;25052;-74
2023/09/07 01:16:13;;;;;;;13.98;11.25;;;;;;;;;;4988048;28;25065;-74
2023/09/07 01:18:42;;;;;;;14.60;11.57;;;;;;;;;;4986163;28;25094;-75
2023/09/07 01:21:10;;;;;;;15.18;12.48;;;;;;;;;;4983353;28;25072;-74
2023/09/07 01:23:36;;;;;;;14.55;12.48;;;;;;;;;;4984041;28;25077;-73
2023/09/07 01:26:03;;;;;;;16.92;12.68;;;;;;;;;;4985253;28;25081;-71
2023/09/07 01:28:29;;;;;;;15.82;12.82;;;;;;;;;;4986080;28;25083;-72
2023/09/07 01:30:55;;;;;;;17.92;12.90;;;;;;;;;;4986222;28;25051;-74
2023/09/07 01:33:21;;;;;;;18.48;13.65;;;;;;;;;;4988086;28;25068;-73
2023/09/07 01:35:47;;;;;;;17.83;12.85;;;;;;;;;;4987931;28;25120;-73
2023/09/07 01:38:13;;;;;;;16.55;12.75;;;;;;;;;;5000754;28;25094;-72
2023/09/07 01:40:39;;;;;;;17.00;12.55;;;;;;;;;;4996299;28;25080;-72
2023/09/07 01:43:05;;;;;;;16.20;12.27;;;;;;;;;;4994659;28;25069;-73
2023/09/07 01:45:31;;;;;;;18.02;12.55;;;;;;;;;;4994878;28;25164;-72
2023/09/07 01:47:58;;;;;;;16.77;12.82;;;;;;;;;;4986780;28;25068;-73
2023/09/07 01:50:25;;;;;;;17.60;13.70;;;;;;;;;;4986359;28;25065;-72
2023/09/07 01:52:51;;;;;;;17.40;13.27;;;;;;;;;;4986669;28;25057;-74
2023/09/07 01:55:17;;;;;;;18.13;14.38;;;;;;;;;;4992161;28;25309;-72
2023/09/07 01:57:44;;;;;;;16.00;13.60;;;;;;;;;;4987398;28;25143;-70
2023/09/07 02:00:10;;;;;;;20.60;14.05;;;;;;;;;;4992504;28;25087;-72
2023/09/07 02:02:36;;;;;;;22.88;13.73;;;;;;;;;;4994597;28;25120;-72
2023/09/07 02:05:02;;;;;;;18.85;14.55;;;;;;;;;;4987773;28;25068;-72
2023/09/07 02:07:28;;;;;;;19.15;13.77;;;;;;;;;;4990599;28;25078;-73
2023/09/07 02:09:54;;;;;;;18.27;14.50;;;;;;;;;;4991090;28;25122;-74
2023/09/07 02:12:20;;;;;;;18.13;15.25;;;;;;;;;;4999356;28;25061;-73
2023/09/07 02:14:46;;;;;;;18.38;14.88;;;;;;;;;;4991427;28;25135;-72
2023/09/07 02:17:17;;;;;;;19.92;14.73;;;;;;;;;;4992247;28;25150;-72
2023/09/07 02:19:43;;;;;;;22.85;14.25;;;;;;;;;;4988969;28;25072;-74
2023/09/07 02:22:09;;;;;;;18.67;14.27;;;;;;;;;;4985360;28;25054;-72
2023/09/07 02:24:35;;;;;;;21.15;14.82;;;;;;;;;;4985867;28;25105;-73
2023/09/07 02:27:01;;;;;;;18.48;14.63;;;;;;;;;;4987161;28;25131;-72
2023/09/07 02:29:27;;;;;;;21.42;15.75;;;;;;;;;;4990369;28;25182;-74
2023/09/07 02:31:53;;;;;;;19.55;15.30;;;;;;;;;;4988253;28;25080;-72
2023/09/07 02:34:19;;;;;;;21.45;15.77;;;;;;;;;;4997059;28;25073;-73
2023/09/07 02:36:45;;;;;;;21.50;15.63;;;;;;;;;;4984391;28;25117;-74
2023/09/07 02:39:11;;;;;;;18.70;14.75;;;;;;;;;;4997341;28;25077;-74
2023/09/07 02:41:38;;;;;;;22.67;16.88;;;;;;;;;;4991431;28;25053;-73
2023/09/07 02:44:04;;;;;;;26.60;17.27;;;;;;;;;;4989315;28;25077;-71
2023/09/07 02:46:30;;;;;;;23.15;16.10;;;;;;;;;;4988035;28;25052;-74
2023/09/07 02:48:57;;;;;;;21.00;16.58;;;;;;;;;;4996947;28;25081;-72
2023/09/07 02:51:24;;;;;;;24.17;17.63;;;;;;;;;;4992316;28;25428;-73
2023/09/07 02:53:50;;;;;;;19.58;15.52;;;;;;;;;;4989098;28;25091;-73
2023/09/07 02:56:16;;;;;;;22.38;16.88;;;;;;;;;;4984320;28;25054;-73
2023/09/07 02:58:42;;;;;;;21.17;16.98;;;;;;;;;;4985505;28;25075;-72
2023/09/07 03:01:11;;;;;;;27.15;17.73;;;;;;;;;;4988112;28;25047;-73
2023/09/07 03:03:37;;;;;;;24.23;16.73;;;;;;;;;;4989573;28;25097;-77
2023/09/07 03:06:10;;;;;;;22.58;16.92;;;;;;;;;;4987213;28;25079;-72
2023/09/07 03:08:36;;;;;;;20.50;17.00;;;;;;;;;;4991107;28;25082;-74
2023/09/07 03:11:05;;;;;;;20.83;16.67;;;;;;;;;;4989710;28;25064;-73
2023/09/07 03:13:32;;;;;;;21.88;17.17;;;;;;;;;;4989565;28;25101;-72
2023/09/07 03:15:58;;;;;;;26.02;18.52;;;;;;;;;;4989409;28;25084;-74
2023/09/07 03:18:24;;;;;;;21.98;17.25;;;;;;;;;;4991625;28;25130;-73
2023/09/07 03:20:50;;;;;;;22.48;17.10;;;;;;;;;;4989084;28;25092;-73
2023/09/07 03:23:17;;;;;;;24.70;17.92;;;;;;;;;;5000206;28;25036;-73
2023/09/07 03:25:43;;;;;;;22.70;17.27;;;;;;;;;;4989169;28;25080;-71
2023/09/07 03:28:08;;;;;;;21.23;17.13;;;;;;;;;;4988631;28;25085;-73
2023/09/07 03:30:34;;;;;;;21.48;17.27;;;;;;;;;;4989208;28;25140;-71
2023/09/07 03:33:00;;;;;;;22.92;17.85;;;;;;;;;;4969710;28;25081;-73
2023/09/07 03:35:27;;;;;;;20.52;16.70;;;;;;;;;;4964983;28;25079;-72
2023/09/07 03:37:53;;;;;;;23.73;18.42;;;;;;;;;;4970049;28;25076;-71
2023/09/07 03:40:19;;;;;;;25.17;19.13;;;;;;;;;;4981435;28;25077;-74
2023/09/07 03:42:46;;;;;;;23.25;17.42;;;;;;;;;;4965613;28;25121;-73
2023/09/07 03:45:12;;;;;;;26.67;18.40;;;;;;;;;;4975215;28;25118;-72
2023/09/07 03:47:38;;;;;;;25.20;18.63;;;;;;;;;;4975613;28;25083;-73
2023/09/07 03:50:04;;;;;;;23.17;18.77;;;;;;;;;;4971317;28;25063;-73
2023/09/07 03:52:31;;;;;;;23.13;17.85;;;;;;;;;;4975953;28;25072;-73
2023/09/07 03:54:58;;;;;;;23.10;17.65;;;;;;;;;;4969070;28;25095;-73
2023/09/07 03:57:24;;;;;;;24.88;17.65;;;;;;;;;;4973785;28;24943;-73
2023/09/07 03:59:50;;;;;;;24.00;17.48;;;;;;;;;;4970722;28;25056;-73
2023/09/07 04:02:20;;;;;;;25.23;18.42;;;;;;;;;;4965493;28;25062;-73
2023/09/07 04:04:50;;;;;;;24.77;17.65;;;;;;;;;;4967568;28;25048;-73
2023/09/07 04:07:16;;;;;;;28.90;19.10;;;;;;;;;;4965029;28;25079;-72
2023/09/07 04:09:43;;;;;;;23.38;17.45;;;;;;;;;;4967144;28;25173;-72
2023/09/07 04:12:09;;;;;;;26.55;18.42;;;;;;;;;;4970378;28;25070;-72
2023/09/07 04:14:35;;;;;;;21.30;17.98;;;;;;;;;;4966914;28;25107;-74
2023/09/07 04:17:01;;;;;;;28.48;19.27;;;;;;;;;;4964632;28;25166;-72
2023/09/07 04:19:27;;;;;;;23.10;17.08;;;;;;;;;;4964987;28;25172;-72
2023/09/07 04:21:53;;;;;;;25.83;18.65;;;;;;;;;;4965085;28;25065;-74
2023/09/07 04:24:19;;;;;;;24.52;18.77;;;;;;;;;;4968799;28;25053;-73
2023/09/07 04:26:45;;;;;;;24.48;19.50;;;;;;;;;;4974431;28;25123;-73
2023/09/07 04:29:12;;;;;;;23.35;18.67;;;;;;;;;;4968116;28;25065;-69
2023/09/07 04:31:38;;;;;;;27.35;18.85;;;;;;;;;;4964432;28;25127;-74
2023/09/07 04:34:05;;;;;;;25.05;18.52;;;;;;;;;;4965196;28;25127;-73
2023/09/07 04:36:31;;;;;;;24.55;19.20;;;;;;;;;;4976362;28;25081;-70
2023/09/07 04:38:57;;;;;;;25.38;19.50;;;;;;;;;;4957590;28;25070;-74
2023/09/07 04:41:23;;;;;;;27.95;19.75;;;;;;;;;;4965156;28;25052;-73
2023/09/07 04:43:49;;;;;;;25.42;19.38;;;;;;;;;;4960916;28;25049;-74
2023/09/07 04:46:15;;;;;;;22.38;17.95;;;;;;;;;;4971998;28;25084;-71
2023/09/07 04:48:41;;;;;;;24.27;18.17;;;;;;;;;;4962289;28;25074;-71
2023/09/07 04:51:09;;;;;;;29.15;19.63;;;;;;;;;;4962682;28;25085;-72
2023/09/07 04:53:36;;;;;;;24.42;19.08;;;;;;;;;;4961967;28;25048;-72
2023/09/07 04:56:02;;;;;;;24.92;18.23;;;;;;;;;;4963992;28;25066;-72
2023/09/07 04:58:29;;;;;;;23.02;18.42;;;;;;;;;;4961803;28;25107;-71
2023/09/07 05:00:55;;;;;;;26.42;17.75;;;;;;;;;;4965968;28;25113;-71
2023/09/07 05:03:21;;;;;;;22.33;18.02;;;;;;;;;;4974664;28;25080;-74
2023/09/07 05:05:51;;;;;;;23.48;17.60;;;;;;;;;;4968330;28;24858;-73
2023/09/07 05:08:18;;;;;;;22.13;17.55;;;;;;;;;;4967825;28;25078;-71
2023/09/07 05:10:44;;;;;;;25.30;18.08;;;;;;;;;;4966246;28;25064;-72
2023/09/07 05:13:10;;;;;;;26.50;18.13;;;;;;;;;;4969298;28;25064;-72
2023/09/07 05:15:36;;;;;;;26.02;18.85;;;;;;;;;;4985095;28;25061;-72
2023/09/07 05:18:02;;;;;;;22.65;17.58;;;;;;;;;;4983890;28;25083;-73
2023/09/07 05:20:31;;;;;;;21.75;17.65;;;;;;;;;;4989188;28;25082;-71
2023/09/07 05:22:59;;;;;;;22.65;17.48;;;;;;;;;;4970233;28;25127;-71
2023/09/07 05:25:25;;;;;;;20.52;16.80;;;;;;;;;;4972976;28;25061;-72
2023/09/07 05:27:51;;;;;;;19.80;16.50;;;;;;;;;;4970499;28;25131;-72
2023/09/07 05:30:17;;;;;;;25.20;17.40;;;;;;;;;;4968757;28;25140;-72
2023/09/07 05:32:43;;;;;;;23.40;16.02;;;;;;;;;;4973099;28;25068;-73
2023/09/07 05:35:10;;;;;;;22.00;15.82;;;;;;;;;;4969771;28;25059;-71
2023/09/07 05:37:37;;;;;;;19.20;15.55;;;;;;;;;;4966787;28;25089;-73
2023/09/07 05:40:03;;;;;;;26.65;16.73;;;;;;;;;;4959760;28;25080;-72
2023/09/07 05:42:29;;;;;;;22.90;16.10;;;;;;;;;;4967444;28;25075;-73
2023/09/07 05:44:55;;;;;;;23.60;17.30;;;;;;;;;;4967128;28;25070;-71
2023/09/07 05:47:21;;;;;;;20.73;15.85;;;;;;;;;;4967440;28;25080;-74
2023/09/07 05:49:47;;;;;;;19.90;15.90;;;;;;;;;;4969554;28;25066;-73
2023/09/07 05:52:13;;;;;;;19.48;15.40;;;;;;;;;;4978341;28;25059;-71
2023/09/07 05:54:39;;;;;;;21.30;15.73;;;;;;;;;;4970868;28;25091;-70
2023/09/07 05:57:05;;;;;;;20.25;14.77;;;;;;;;;;4977311;28;25082;-70
2023/09/07 05:59:31;;;;;;;19.90;15.05;;;;;;;;;;4985861;28;25074;-72
2023/09/07 06:01:57;;;;;;;18.77;15.60;;;;;;;;;;4983721;28;25054;-72
2023/09/07 06:04:23;;;;;;;24.85;15.52;;;;;;;;;;4984519;28;25076;-75
2023/09/07 06:06:49;;;;;;;20.33;15.95;;;;;;;;;;4994109;28;25103;-72
2023/09/07 06:09:15;;;;;;;23.92;15.07;;;;;;;;;;4988345;28;25061;-71
2023/09/07 06:11:41;;;;;;;20.33;14.23;;;;;;;;;;4982339;28;25065;-71
2023/09/07 06:14:07;;;;;;;21.88;15.00;;;;;;;;;;4985271;28;25064;-72
2023/09/07 06:16:33;;;;;;;20.75;15.10;;;;;;;;;;4966119;28;25063;-73
2023/09/07 06:18:59;;;;;;;16.38;13.73;;;;;;;;;;4966235;28;25050;-72
2023/09/07 06:21:25;;;;;;;18.00;14.00;;;;;;;;;;4963363;28;25109;-72
2023/09/07 06:23:51;;;;;;;19.10;13.70;;;;;;;;;;4964978;28;25078;-72
2023/09/07 06:26:17;;;;;;;15.68;13.93;;;;;;;;;;4960701;28;25150;-71
2023/09/07 06:28:43;;;;;;;19.83;13.98;;;;;;;;;;4961615;28;25069;-73
2023/09/07 06:31:09;;;;;;;17.25;13.55;;;;;;;;;;4962947;28;25070;-71
2023/09/07 06:33:35;;;;;;;20.90;14.98;;;;;;;;;;4968002;28;25070;-72
2023/09/07 06:36:02;;;;;;;16.35;14.25;;;;;;;;;;4965778;28;25061;-72
2023/09/07 06:38:28;;;;;;;19.70;14.27;;;;;;;;;;4960054;28;25062;-71
2023/09/07 06:40:54;;;;;;;19.90;13.70;;;;;;;;;;4967340;28;25054;-71
2023/09/07 06:43:20;;;;;;;17.25;13.23;;;;;;;;;;4961864;28;25153;-71
2023/09/07 06:45:46;;;;;;;18.90;13.63;;;;;;;;;;4968584;28;25080;-72
2023/09/07 06:48:12;;;;;;;16.00;13.77;;;;;;;;;;4967204;28;25085;-71
2023/09/07 06:50:38;;;;;;;18.88;13.57;;;;;;;;;;4964032;28;25086;-72
2023/09/07 06:53:04;;;;;;;19.08;13.98;;;;;;;;;;4970088;28;25087;-71
2023/09/07 06:55:30;;;;;;;16.40;14.18;;;;;;;;;;4970671;28;25135;-71
2023/09/07 06:57:57;;;;;;;19.13;12.88;;;;;;;;;;4980461;28;25072;-71
2023/09/07 07:00:22;;;;;;;18.80;13.55;;;;;;;;;;4974049;28;25068;-72
2023/09/07 07:02:48;;;;;;;15.85;12.10;;;;;;;;;;4960697;28;25082;-74
2023/09/07 07:05:14;;;;;;;27.42;13.98;;;;;;;;;;4963881;28;25087;-72
2023/09/07 07:07:40;;;;;;;20.17;13.07;;;;;;;;;;4963993;28;25069;-71
2023/09/07 07:10:07;;;;;;;18.60;13.18;;;;;;;;;;4960088;28;25224;-73
2023/09/07 07:12:34;;;;;;;21.05;13.50;;;;;;;;;;4965113;28;25153;-72
2023/09/07 07:15:01;;;;;;;14.98;11.95;;;;;;;;;;4956222;28;25118;-72
2023/09/07 07:17:27;;;;;;;13.30;11.50;;;;;;;;;;4966097;28;25062;-72
2023/09/07 07:19:53;;;;;;;23.25;13.63;;;;;;;;;;4958524;28;25073;-73
2023/09/07 07:22:19;;;;;;;19.60;12.32;;;;;;;;;;4968603;28;25066;-73
2023/09/07 07:24:45;;;;;;;20.63;13.07;;;;;;;;;;4961107;28;25050;-72
2023/09/07 07:27:11;;;;;;;17.02;13.70;;;;;;;;;;4966154;28;25061;-72
2023/09/07 07:29:37;;;;;;;18.77;13.30;;;;;;;;;;4965354;28;25104;-73
2023/09/07 07:32:04;;;;;;;17.27;12.95;;;;;;;;;;4969910;28;25055;-73
2023/09/07 07:34:30;;;;;;;17.45;12.90;;;;;;;;;;4982276;28;25067;-71
2023/09/07 07:36:56;;;;;;;21.98;13.40;;;;;;;;;;4965216;28;25116;-72
2023/09/07 07:39:22;;;;;;;17.77;13.48;;;;;;;;;;4969840;28;25084;-72
2023/09/07 07:41:48;;;;;;;16.20;12.32;;;;;;;;;;4974895;28;25079;-73
2023/09/07 07:44:14;;;;;;;17.15;12.55;;;;;;;;;;4967640;28;25054;-73
2023/09/07 07:46:40;;;;;;;19.98;13.52;;;;;;;;;;4962354;28;25090;-73
2023/09/07 07:49:06;;;;;;;21.48;13.10;;;;;;;;;;4980354;28;25053;-73
2023/09/07 07:51:32;;;;;;;16.98;12.43;;;;;;;;;;4973001;28;25064;-72
2023/09/07 07:53:58;;;;;;;15.32;11.05;;;;;;;;;;4968382;28;25067;-73
2023/09/07 07:56:25;;;;;;;18.90;12.77;;;;;;;;;;4968620;28;25069;-73
2023/09/07 07:58:51;;;;;;;16.08;12.13;;;;;;;;;;4968052;28;25187;-74
2023/09/07 08:01:17;;;;;;;18.63;12.13;;;;;;;;;;4960880;28;25110;-72
2023/09/07 08:03:43;;;;;;;19.65;12.60;;;;;;;;;;4980034;28;25057;-72
2023/09/07 08:06:10;;;;;;;16.80;12.10;;;;;;;;;;4963182;28;25081;-73
2023/09/07 08:08:36;;;;;;;18.00;12.55;;;;;;;;;;4961676;28;25070;-73
2023/09/07 08:11:05;;;;;;;20.52;12.80;;;;;;;;;;4968055;28;25095;-74
2023/09/07 08:13:32;;;;;;;15.65;11.80;;;;;;;;;;4971289;28;25065;-72
2023/09/07 08:15:58;;;;;;;16.02;11.55;;;;;;;;;;4972671;28;25073;-72
2023/09/07 08:18:24;;;;;;;19.85;11.18;;;;;;;;;;4975401;28;25050;-74
2023/09/07 08:20:50;;;;;;;14.98;11.68;;;;;;;;;;4962836;28;25125;-72
2023/09/07 08:23:16;;;;;;;16.63;11.63;;;;;;;;;;4964648;28;25059;-73
2023/09/07 08:25:46;;;;;;;15.07;11.00;;;;;;;;;;4968287;28;25059;-71
2023/09/07 08:28:12;;;;;;;16.45;10.73;;;;;;;;;;4962210;28;25072;-72
2023/09/07 08:30:38;;;;;;;16.92;11.35;;;;;;;;;;4961342;28;25075;-74
2023/09/07 08:33:06;;;;;;;15.68;11.18;;;;;;;;;;4967933;28;25068;-72
2023/09/07 08:35:35;;;;;;;14.05;10.02;;;;;;;;;;4965755;28;25070;-72
2023/09/07 08:38:04;;;;;;;15.27;10.13;;;;;;;;;;4972824;28;25171;-73
2023/09/07 08:40:32;;;;;;;13.90;9.95;;;;;;;;;;4961778;28;25069;-71
2023/09/07 08:42:59;;;;;;;15.00;9.43;;;;;;;;;;4967608;28;25068;-73
2023/09/07 08:45:26;;;;;;;18.52;10.68;;;;;;;;;;4963073;28;25085;-72
2023/09/07 08:47:53;;;;;;;14.13;9.88;;;;;;;;;;4992717;28;25064;-73
2023/09/07 08:50:19;;;;;;;16.08;10.00;;;;;;;;;;4984655;28;25089;-72
2023/09/07 08:52:46;;;;;;;14.02;10.38;;;;;;;;;;4986037;28;25073;-74
2023/09/07 08:55:13;;;;;;;12.80;9.95;;;;;;;;;;4986959;28;25137;-73
2023/09/07 08:57:39;;;;;;;13.55;9.48;;;;;;;;;;4968566;28;25059;-72
2023/09/07 09:00:14;;;;;;;12.18;10.30;;;;;;;;;;4970387;28;25122;-73
2023/09/07 09:02:40;;;;;;;15.27;9.68;;;;;;;;;;4966014;28;25053;-74
2023/09/07 09:05:07;;;;;;;14.75;11.40;;;;;;;;;;4963438;28;25062;-73
2023/09/07 09:07:33;;;;;;;15.73;9.63;;;;;;;;;;4966514;28;25123;-72
2023/09/07 09:10:05;;;;;;;14.13;9.10;;;;;;;;;;4969618;28;25088;-73
2023/09/07 09:12:30;;;;;;;14.10;9.32;;;;;;;;;;4968379;28;25071;-73
2023/09/07 09:14:56;;;;;;;15.10;9.80;;;;;;;;;;4988650;28;25059;-74
2023/09/07 09:17:25;;;;;;;10.70;8.88;;;;;;;;;;4971321;28;25081;-74
2023/09/07 09:19:51;;;;;;;13.70;9.45;;;;;;;;;;4977662;28;25090;-73
2023/09/07 09:22:19;;;;;;;16.23;8.43;;;;;;;;;;4964371;28;25087;-73
2023/09/07 09:24:48;;;;;;;12.82;8.23;;;;;;;;;;4967389;28;25132;-73
2023/09/07 09:27:14;;;;;;;11.90;7.35;;;;;;;;;;4971584;28;25077;-73
2023/09/07 09:29:40;;;;;;;11.10;7.57;;;;;;;;;;4976377;28;25074;-71
2023/09/07 09:32:07;;;;;;;19.35;8.35;;;;;;;;;;4982064;28;25072;-74
2023/09/07 09:34:37;;;;;;;15.18;7.78;;;;;;;;;;4982769;28;25069;-73
2023/09/07 09:37:03;;;;;;;14.10;8.00;;;;;;;;;;4981090;28;25101;-74
2023/09/07 09:39:30;;;;;;;13.20;8.20;;;;;;;;;;4974591;28;25063;-73
2023/09/07 09:41:56;;;;;;;17.90;7.00;;;;;;;;;;4982929;28;25078;-71
2023/09/07 09:44:25;;;;;;;8.95;7.32;;;;;;;;;;4984895;28;25056;-71
2023/09/07 09:46:56;;;;;;;10.07;6.22;;;;;;;;;;4984960;28;25071;-73
2023/09/07 09:49:23;;;;;;;9.77;7.03;;;;;;;;;;5000752;28;25067;-76
2023/09/07 09:51:50;;;;;;;12.30;6.38;;;;;;;;;;4995096;28;25089;-73
2023/09/07 09:54:17;;;;;;;8.63;6.13;;;;;;;;;;5005743;28;25065;-73
2023/09/07 09:56:43;;;;;;;10.00;6.70;;;;;;;;;;4992335;28;25074;-73
2023/09/07 09:59:09;;;;;;;11.43;6.75;;;;;;;;;;4987441;28;25061;-74
2023/09/07 10:01:41;;;;;;;11.65;6.32;;;;;;;;;;4987307;28;25068;-73
2023/09/07 10:04:09;;;;;;;9.13;6.00;;;;;;;;;;4985393;28;25050;-72
2023/09/07 10:06:35;;;;;;;11.45;7.03;;;;;;;;;;4967779;28;25068;-74
2023/09/07 10:09:06;;;;;;;10.00;6.57;;;;;;;;;;4987425;28;25056;-71
2023/09/07 10:11:33;;;;;;;10.13;6.20;;;;;;;;;;4983651;28;25063;-72
2023/09/07 10:14:00;;;;;;;9.77;5.63;;;;;;;;;;4971241;28;25070;-72
2023/09/07 10:16:27;;;;;;;10.63;6.82;;;;;;;;;;4977394;28;25083;-73
2023/09/07 10:18:53;;;;;;;8.20;6.10;;;;;;;;;;4979418;28;25082;-73
2023/09/07 10:21:19;;;;;;;9.45;6.60;;;;;;;;;;4972493;28;25067;-73
2023/09/07 10:23:45;;;;;;;9.07;6.07;;;;;;;;;;4973429;28;25073;-72
2023/09/07 10:26:13;;;;;;;10.43;5.63;;;;;;;;;;4972741;28;25105;-72
2023/09/07 10:28:39;;;;;;;11.68;5.80;;;;;;;;;;4971004;28;25167;-74
2023/09/07 10:31:06;;;;;;;10.77;5.65;;;;;;;;;;4968667;28;25080;-73
2023/09/07 10:33:33;;;;;;;13.70;5.60;;;;;;;;;;4972366;28;25069;-72
2023/09/07 10:35:59;;;;;;;9.30;5.72;;;;;;;;;;4970504;28;25118;-72
2023/09/07 10:38:25;;;;;;;9.57;5.63;;;;;;;;;;4978293;28;25078;-72
2023/09/07 10:40:58;;;;;;;8.48;6.10;;;;;;;;;;4990800;28;25082;-73
2023/09/07 10:43:27;;;;;;;9.88;6.03;;;;;;;;;;4971326;28;25079;-73
2023/09/07 10:45:54;;;;;;;7.65;5.53;;;;;;;;;;4970412;28;25076;-72
2023/09/07 10:48:20;;;;;;;7.00;4.78;;;;;;;;;;4995444;28;25073;-72
2023/09/07 10:50:47;;;;;;;11.05;4.95;;;;;;;;;;5001833;28;25057;-73
2023/09/07 10:53:14;;;;;;;9.60;4.97;;;;;;;;;;4995231;28;25073;-72
2023/09/07 10:55:43;;;;;;;8.85;5.47;;;;;;;;;;4994963;28;25077;-73
2023/09/07 10:58:10;;;;;;;5.63;4.38;;;;;;;;;;4991737;28;25140;-73
2023/09/07 11:00:36;;;;;;;8.70;4.30;;;;;;;;;;4996467;28;25073;-72
2023/09/07 11:03:09;;;;;;;5.07;4.32;;;;;;;;;;4988933;28;25119;-73
2023/09/07 11:05:36;;;;;;;10.85;5.00;;;;;;;;;;4991931;28;25072;-73
2023/09/07 11:08:03;;;;;;;7.78;5.75;;;;;;;;;;4982599;28;25066;-72
2023/09/07 11:10:29;;;;;;;8.75;4.90;;;;;;;;;;5003844;28;25101;-72
2023/09/07 11:12:55;;;;;;;8.77;5.53;;;;;;;;;;5005303;28;25091;-72
2023/09/07 11:15:21;;;;;;;6.43;5.07;;;;;;;;;;4999739;28;25079;-72
2023/09/07 11:17:47;;;;;;;7.40;4.90;;;;;;;;;;5003869;28;25048;-72
2023/09/07 11:20:13;;;;;;;8.05;5.15;;;;;;;;;;4997538;28;25091;-73
2023/09/07 11:22:39;;;;;;;7.47;5.03;;;;;;;;;;4988226;28;25062;-75
2023/09/07 11:25:06;;;;;;;4.75;4.10;;;;;;;;;;4999495;28;25070;-72
2023/09/07 11:27:32;;;;;;;10.02;5.47;;;;;;;;;;5006638;28;25050;-73
2023/09/07 11:30:00;;;;;;;5.68;4.32;;;;;;;;;;4997513;28;25133;-73
2023/09/07 11:32:33;;;;;;;7.07;4.75;;;;;;;;;;4986074;28;25153;-73
2023/09/07 11:34:59;;;;;;;8.93;5.43;;;;;;;;;;4991563;28;25086;-72
2023/09/07 11:37:25;;;;;;;9.77;4.55;;;;;;;;;;4992430;28;25081;-71
2023/09/07 11:39:51;;;;;;;7.30;4.60;;;;;;;;;;4988008;28;25062;-73
2023/09/07 11:42:17;;;;;;;6.50;4.55;;;;;;;;;;4995609;28;25062;-72
2023/09/07 11:44:43;;;;;;;7.88;4.97;;;;;;;;;;5002579;28;25077;-70
2023/09/07 11:47:09;;;;;;;9.35;4.63;;;;;;;;;;4994297;28;25087;-73
2023/09/07 11:49:35;;;;;;;4.65;4.10;;;;;;;;;;5001973;28;25086;-73
2023/09/07 11:52:01;;;;;;;7.82;4.10;;;;;;;;;;5004503;28;25072;-73
2023/09/07 11:54:27;;;;;;;6.68;4.10;;;;;;;;;;4998598;28;25162;-74
2023/09/07 11:56:53;;;;;;;7.80;4.25;;;;;;;;;;4995506;28;25056;-72
2023/09/07 11:59:19;;;;;;;8.38;4.10;;;;;;;;;;4993296;28;25143;-72
2023/09/07 12:01:45;;;;;;;6.80;4.22;;;;;;;;;;4994498;28;25061;-72
2023/09/07 12:04:11;;;;;;;5.47;4.70;;;;;;;;;;4991466;28;25125;-73
2023/09/07 12:06:37;;;;;;;5.10;4.50;;;;;;;;;;5003277;28;25130;-74
2023/09/07 12:09:04;;;;;;;5.18;4.15;;;;;;;;;;4995851;28;25131;-73
2023/09/07 12:11:31;;;;;;;7.40;4.07;;;;;;;;;;4997263;28;25060;-72
2023/09/07 12:13:57;;;;;;;4.95;4.00;;;;;;;;;;4993821;28;25164;-73
2023/09/07 12:16:23;;;;;;;8.15;4.28;;;;;;;;;;4997620;28;25079;-73
2023/09/07 12:18:49;;;;;;;4.65;3.83;;;;;;;;;;4995728;28;25134;-74
2023/09/07 12:21:15;;;;;;;6.85;4.13;;;;;;;;;;4997446;28;25069;-74
2023/09/07 12:23:41;;;;;;;6.68;3.90;;;;;;;;;;4992954;28;25060;-73
2023/09/07 12:26:08;;;;;;;9.40;4.03;;;;;;;;;;4995505;28;25079;-72
2023/09/07 12:28:34;;;;;;;8.93;3.92;;;;;;;;;;4997380;28;25064;-72
2023/09/07 12:31:00;;;;;;;7.10;3.58;;;;;;;;;;4997471;28;25097;-72
2023/09/07 12:33:29;;;;;;;5.55;4.00;;;;;;;;;;4995818;28;25074;-72
2023/09/07 12:35:55;;;;;;;3.83;3.42;;;;;;;;;;5004142;28;25052;-72
2023/09/07 12:38:24;;;;;;;5.43;3.55;;;;;;;;;;4999205;28;25055;-74
2023/09/07 12:40:50;;;;;;;8.05;3.47;;;;;;;;;;4999985;28;25052;-72
2023/09/07 12:43:16;;;;;;;7.82;3.58;;;;;;;;;;4990001;28;25073;-72
2023/09/07 12:45:42;;;;;;;5.25;3.67;;;;;;;;;;4996018;28;25104;-70
2023/09/07 12:48:08;;;;;;;7.50;3.53;;;;;;;;;;4978694;28;25071;-73
2023/09/07 12:50:34;;;;;;;5.45;3.58;;;;;;;;;;4984239;28;25063;-72
2023/09/07 12:53:00;;;;;;;6.78;3.65;;;;;;;;;;4986206;28;25078;-71
2023/09/07 12:55:26;;;;;;;8.77;3.92;;;;;;;;;;4990899;28;25089;-70
2023/09/07 12:57:52;;;;;;;6.30;4.40;;;;;;;;;;4990674;28;25067;-72
2023/09/07 13:00:18;;;;;;;4.78;3.67;;;;;;;;;;4988689;28;25059;-71
2023/09/07 13:02:44;;;;;;;7.57;4.60;;;;;;;;;;4984622;28;25084;-73
2023/09/07 13:05:10;;;;;;;5.35;4.57;;;;;;;;;;4986569;28;25125;-75
2023/09/07 13:07:36;;;;;;;7.38;3.72;;;;;;;;;;4986999;28;25084;-72
2023/09/07 13:10:04;;;;;;;8.57;4.53;;;;;;;;;;4989770;28;25159;-72
2023/09/07 13:12:30;;;;;;;6.53;3.90;;;;;;;;;;4990168;28;25089;-72
2023/09/07 13:14:56;;;;;;;7.80;3.50;;;;;;;;;;4988486;28;25062;-71
2023/09/07 13:17:21;;;;;;;8.40;3.20;;;;;;;;;;4988022;28;25066;-73
2023/09/07 13:19:48;;;;;;;4.45;3.67;;;;;;;;;;4984978;28;25066;-74
2023/09/07 13:22:14;;;;;;;6.63;3.47;;;;;;;;;;4989577;28;25066;-74
2023/09/07 13:24:40;;;;;;;4.55;3.80;;;;;;;;;;4996315;28;25067;-75
2023/09/07 13:27:06;;;;;;;5.53;3.22;;;;;;;;;;4991228;28;25110;-71
2023/09/07 13:29:33;;;;;;;8.90;3.60;;;;;;;;;;4991352;28;25083;-74
2023/09/07 13:31:59;;;;;;;4.07;3.40;;;;;;;;;;4987264;28;25180;-72
2023/09/07 13:34:25;;;;;;;6.45;3.40;;;;;;;;;;4989962;28;25161;-73
2023/09/07 13:36:51;;;;;;;5.18;3.20;;;;;;;;;;4992840;28;25138;-72
2023/09/07 13:39:17;;;;;;;6.13;3.55;;;;;;;;;;4988532;28;25136;-73
2023/09/07 13:41:43;;;;;;;9.18;3.70;;;;;;;;;;4990103;28;25067;-71
2023/09/07 13:44:09;;;;;;;4.82;3.40;;;;;;;;;;4996483;28;25113;-72
2023/09/07 13:46:35;;;;;;;3.50;3.20;;;;;;;;;;4992013;28;25142;-73
2023/09/07 13:49:01;;;;;;;5.05;3.45;;;;;;;;;;4991226;28;25068;-73
2023/09/07 13:51:27;;;;;;;4.22;3.83;;;;;;;;;;4995105;28;25129;-73
2023/09/07 13:53:53;;;;;;;3.95;3.47;;;;;;;;;;5008994;28;25068;-74
2023/09/07 13:56:19;;;;;;;5.15;3.55;;;;;;;;;;4990215;28;25060;-72
2023/09/07 13:58:46;;;;;;;6.38;3.63;;;;;;;;;;5003056;28;25056;-74
2023/09/07 14:01:12;;;;;;;5.28;2.75;;;;;;;;;;5006751;28;25095;-74
2023/09/07 14:03:38;;;;;;;7.07;3.60;;;;;;;;;;5011003;28;25099;-72
2023/09/07 14:06:04;;;;;;;5.40;3.50;;;;;;;;;;5010173;28;25066;-73
2023/09/07 14:08:33;;;;;;;4.57;3.65;;;;;;;;;;5007089;28;25118;-73
2023/09/07 14:10:58;;;;;;;4.55;3.67;;;;;;;;;;5005915;28;25071;-72
2023/09/07 14:13:24;;;;;;;6.82;3.38;;;;;;;;;;5000697;28;25111;-75
2023/09/07 14:15:50;;;;;;;7.93;3.42;;;;;;;;;;4996236;28;25060;-71
2023/09/07 14:18:16;;;;;;;3.95;3.63;;;;;;;;;;5000634;28;25053;-74
2023/09/07 14:20:42;;;;;;;4.45;3.50;;;;;;;;;;4997522;28;25097;-74